createdAt,value
2017-11-01T00:01:58.802Z,81.20
2017-11-01T00:04:27.180Z,81.20
2017-11-01T00:06:56.125Z,81.20
2017-11-01T00:09:24.495Z,81.10
2017-11-01T00:11:53.373Z,81.10
2017-11-01T00:14:21.854Z,81.10
2017-11-01T00:16:50.250Z,81.10
2017-11-01T00:19:18.635Z,81.00
2017-11-01T00:21:47.823Z,81.00
2017-11-01T00:24:16.200Z,81.10
2017-11-01T00:26:45.510Z,81.20
2017-11-01T00:29:13.968Z,81.30
2017-11-01T00:31:42.424Z,82.10
2017-11-01T00:34:11.586Z,81.50
2017-11-01T00:36:39.979Z,81.60
2017-11-01T00:39:08.364Z,81.50
2017-11-01T00:41:37.446Z,81.70
2017-11-01T00:44:05.825Z,81.70
2017-11-01T00:46:34.219Z,81.90
2017-11-01T00:49:02.626Z,81.90
2017-11-01T00:51:31.776Z,82.20
2017-11-01T00:54:00.155Z,82.10
2017-11-01T00:56:28.546Z,82.10
2017-11-01T00:58:56.929Z,82.00
2017-11-01T01:01:25.329Z,82.30
2017-11-01T01:03:53.819Z,82.30
2017-11-01T01:06:22.194Z,82.20
2017-11-01T01:08:50.618Z,82.30
2017-11-01T01:11:19.767Z,82.40
2017-11-01T01:13:48.148Z,82.40
2017-11-01T01:16:16.554Z,82.40
2017-11-01T01:18:44.935Z,82.40
2017-11-01T01:21:13.320Z,82.40
2017-11-01T01:23:41.708Z,82.50
2017-11-01T01:26:10.100Z,82.40
2017-11-01T01:28:38.482Z,82.60
2017-11-01T01:31:06.845Z,82.60
2017-11-01T01:33:35.220Z,82.60
2017-11-01T01:36:03.621Z,82.70
2017-11-01T01:38:32.031Z,82.80
2017-11-01T01:41:01.194Z,83.00
2017-11-01T01:43:29.599Z,83.00
2017-11-01T01:45:58.760Z,83.10
2017-11-01T01:48:27.139Z,83.10
2017-11-01T01:50:55.559Z,83.00
2017-11-01T01:53:24.802Z,83.10
2017-11-01T01:55:53.190Z,83.10
2017-11-01T01:58:21.570Z,83.10
2017-11-01T02:00:50.002Z,83.10
2017-11-01T02:03:18.396Z,83.30
2017-11-01T02:05:46.782Z,83.20
2017-11-01T02:08:15.177Z,83.30
2017-11-01T02:10:44.320Z,83.50
2017-11-01T02:13:12.769Z,83.50
2017-11-01T02:15:41.933Z,83.60
2017-11-01T02:18:10.329Z,83.50
2017-11-01T02:20:38.723Z,83.60
2017-11-01T02:23:07.111Z,83.60
2017-11-01T02:25:36.243Z,83.90
2017-11-01T02:28:04.618Z,83.90
2017-11-01T02:30:33.732Z,83.90
2017-11-01T02:33:02.127Z,83.90
2017-11-01T02:35:30.500Z,84.00
2017-11-01T02:37:58.873Z,84.10
2017-11-01T02:40:27.253Z,84.20
2017-11-01T02:42:55.633Z,84.30
2017-11-01T02:45:24.032Z,84.30
2017-11-01T02:47:52.429Z,84.30
2017-11-01T02:50:21.074Z,84.40
2017-11-01T02:52:50.235Z,84.40
2017-11-01T02:55:18.617Z,84.40
2017-11-01T02:57:46.999Z,84.40
2017-11-01T03:00:15.405Z,84.50
2017-11-01T03:02:44.610Z,84.50
2017-11-01T03:05:13.011Z,84.50
2017-11-01T03:07:41.415Z,84.50
2017-11-01T03:10:09.856Z,84.50
2017-11-01T03:12:38.243Z,84.50
2017-11-01T03:15:07.399Z,84.50
2017-11-01T03:17:35.799Z,84.50
2017-11-01T03:20:04.197Z,84.50
2017-11-01T03:22:32.573Z,84.50
2017-11-01T03:25:00.980Z,84.50
2017-11-01T03:27:30.108Z,84.60
2017-11-01T03:29:58.489Z,84.50
2017-11-01T03:32:26.886Z,84.50
2017-11-01T03:34:55.292Z,84.60
2017-11-01T03:37:23.683Z,84.70
2017-11-01T03:39:52.057Z,84.60
2017-11-01T03:42:20.434Z,84.60
2017-11-01T03:44:48.832Z,84.70
2017-11-01T03:47:17.209Z,84.80
2017-11-01T03:49:45.637Z,84.80
2017-11-01T03:52:14.030Z,85.60
2017-11-01T03:54:42.529Z,84.90
2017-11-01T03:57:10.915Z,85.00
2017-11-01T03:59:39.313Z,85.00
2017-11-01T04:02:07.725Z,85.00
2017-11-01T04:04:36.132Z,85.10
2017-11-01T04:07:05.315Z,85.40
2017-11-01T04:09:33.750Z,85.30
2017-11-01T04:12:02.158Z,85.50
2017-11-01T04:14:31.348Z,86.40
2017-11-01T04:17:02.168Z,85.60
2017-11-01T04:19:30.607Z,85.70
2017-11-01T04:21:59.832Z,85.80
2017-11-01T04:24:28.267Z,85.80
2017-11-01T04:26:57.465Z,85.80
2017-11-01T04:29:25.875Z,85.80
2017-11-01T04:31:54.253Z,86.00
2017-11-01T04:34:22.643Z,86.00
2017-11-01T04:36:51.820Z,86.20
2017-11-01T04:39:20.210Z,86.20
2017-11-01T04:41:48.699Z,86.30
2017-11-01T04:44:17.178Z,86.20
2017-11-01T04:46:46.935Z,86.30
2017-11-01T04:49:15.337Z,86.30
2017-11-01T04:51:58.162Z,86.30
2017-11-01T04:54:26.558Z,86.30
2017-11-01T04:56:54.941Z,86.40
2017-11-01T04:59:23.379Z,86.30
2017-11-01T05:01:54.594Z,86.30
2017-11-01T05:04:22.971Z,86.40
2017-11-01T05:06:51.368Z,86.30
2017-11-01T05:09:20.525Z,86.40
2017-11-01T05:11:50.671Z,86.40
2017-11-01T05:14:19.036Z,86.30
2017-11-01T05:16:47.421Z,86.30
2017-11-01T05:19:16.735Z,86.40
2017-11-01T05:21:45.119Z,86.40
2017-11-01T05:24:13.960Z,86.40
2017-11-01T05:26:48.058Z,86.40
2017-11-01T05:29:17.731Z,86.40
2017-11-01T05:31:47.145Z,86.40
2017-11-01T05:34:15.544Z,86.50
2017-11-01T05:36:43.960Z,86.40
2017-11-01T05:39:12.355Z,86.40
2017-11-01T05:41:40.757Z,86.40
2017-11-01T05:44:09.136Z,86.60
2017-11-01T05:46:37.539Z,86.60
2017-11-01T05:49:05.935Z,86.50
2017-11-01T05:51:34.317Z,86.50
2017-11-01T05:54:03.676Z,86.60
2017-11-01T05:56:32.080Z,86.60
2017-11-01T05:59:00.463Z,86.70
2017-11-01T06:01:29.259Z,86.60
2017-11-01T06:03:57.634Z,86.70
2017-11-01T06:06:26.083Z,86.60
2017-11-01T06:08:54.455Z,86.60
2017-11-01T06:11:22.839Z,86.50
2017-11-01T06:13:51.233Z,86.50
2017-11-01T06:16:19.634Z,86.40
2017-11-01T06:18:48.349Z,86.40
2017-11-01T06:21:16.729Z,86.40
2017-11-01T06:23:48.052Z,86.40
2017-11-01T06:26:16.440Z,86.40
2017-11-01T06:28:44.825Z,86.40
2017-11-01T06:31:13.212Z,86.50
2017-11-01T06:33:42.611Z,86.60
2017-11-01T06:36:10.996Z,86.70
2017-11-01T06:38:40.218Z,86.70
2017-11-01T06:41:08.673Z,86.80
2017-11-01T06:43:37.090Z,87.00
2017-11-01T06:46:05.455Z,87.70
2017-11-01T06:48:33.841Z,87.00
2017-11-01T06:51:02.265Z,87.00
2017-11-01T06:53:31.410Z,87.00
2017-11-01T06:55:59.821Z,87.10
2017-11-01T06:58:28.213Z,87.00
2017-11-01T07:00:56.584Z,87.00
2017-11-01T07:03:30.058Z,86.90
2017-11-01T07:05:58.454Z,86.80
2017-11-01T07:08:27.634Z,86.80
2017-11-01T07:10:56.395Z,86.90
2017-11-01T07:13:24.838Z,87.00
2017-11-01T07:15:53.241Z,87.00
2017-11-01T07:18:24.914Z,87.10
2017-11-01T07:20:53.362Z,86.90
2017-11-01T07:23:21.759Z,86.90
2017-11-01T07:25:50.154Z,86.70
2017-11-01T07:28:19.355Z,86.50
2017-11-01T07:30:48.563Z,87.20
2017-11-01T07:33:16.944Z,86.40
2017-11-01T07:35:46.096Z,85.70
2017-11-01T07:38:14.500Z,86.30
2017-11-01T07:40:42.876Z,85.40
2017-11-01T07:43:11.241Z,85.20
2017-11-01T07:45:39.615Z,85.00
2017-11-01T07:48:08.066Z,85.00
2017-11-01T07:50:37.266Z,84.90
2017-11-01T07:53:06.430Z,84.60
2017-11-01T07:55:34.800Z,84.60
2017-11-01T07:58:03.214Z,84.50
2017-11-01T08:00:32.374Z,85.20
2017-11-01T08:03:00.748Z,84.40
2017-11-01T08:05:29.173Z,84.40
2017-11-01T08:07:57.580Z,84.40
2017-11-01T08:10:26.072Z,84.30
2017-11-01T08:12:55.232Z,84.10
2017-11-01T08:15:23.639Z,84.20
2017-11-01T08:17:52.848Z,84.10
2017-11-01T08:20:21.994Z,83.90
2017-11-01T08:22:50.389Z,83.90
2017-11-01T08:25:18.759Z,83.90
2017-11-01T08:27:47.137Z,83.80
2017-11-01T08:30:15.533Z,83.70
2017-11-01T08:32:43.915Z,83.60
2017-11-01T08:35:12.288Z,83.50
2017-11-01T08:37:40.690Z,83.40
2017-11-01T08:40:09.080Z,83.20
2017-11-01T08:42:37.513Z,83.10
2017-11-01T08:45:05.917Z,83.20
2017-11-01T08:47:34.319Z,83.00
2017-11-01T08:50:02.698Z,83.00
2017-11-01T08:52:31.158Z,83.00
2017-11-01T08:54:59.636Z,82.90
2017-11-01T08:57:28.003Z,82.90
2017-11-01T08:59:57.146Z,82.50
2017-11-01T09:02:25.521Z,82.50
2017-11-01T09:04:53.951Z,82.20
2017-11-01T09:07:22.342Z,82.10
2017-11-01T09:09:51.508Z,82.00
2017-11-01T09:12:19.910Z,81.90
2017-11-01T09:14:48.293Z,81.50
2017-11-01T09:17:16.754Z,81.20
2017-11-01T09:19:45.144Z,81.00
2017-11-01T09:22:13.538Z,80.50
2017-11-01T09:24:41.930Z,80.10
2017-11-01T09:27:10.331Z,80.00
2017-11-01T09:29:39.491Z,79.90
2017-11-01T09:32:07.884Z,79.90
2017-11-01T09:34:36.264Z,79.40
2017-11-01T09:37:04.642Z,79.10
2017-11-01T09:39:33.040Z,79.10
2017-11-01T09:42:01.438Z,79.00
2017-11-01T09:44:29.830Z,79.00
2017-11-01T09:46:58.278Z,79.00
2017-11-01T09:49:26.668Z,78.70
2017-11-01T09:51:55.092Z,78.60
2017-11-01T09:54:24.292Z,77.70
2017-11-01T09:56:53.436Z,77.20
2017-11-01T09:59:21.811Z,77.20
2017-11-01T10:01:50.200Z,77.10
2017-11-01T10:04:18.582Z,76.70
2017-11-01T10:06:46.970Z,76.10
2017-11-01T10:09:15.462Z,76.10
2017-11-01T10:11:43.832Z,75.60
2017-11-01T10:14:12.206Z,75.60
2017-11-01T10:16:40.597Z,75.60
2017-11-01T10:19:08.983Z,75.50
2017-11-01T10:21:37.388Z,75.70
2017-11-01T10:24:05.802Z,75.80
2017-11-01T10:26:34.942Z,75.90
2017-11-01T10:29:03.348Z,75.90
2017-11-01T10:31:31.766Z,76.00
2017-11-01T10:34:00.944Z,76.40
2017-11-01T10:36:29.354Z,76.40
2017-11-01T10:38:57.733Z,76.50
2017-11-01T10:41:26.943Z,77.30
2017-11-01T10:43:55.386Z,76.50
2017-11-01T10:46:23.763Z,76.30
2017-11-01T10:48:52.202Z,76.10
2017-11-01T10:51:20.642Z,76.10
2017-11-01T10:53:49.033Z,75.80
2017-11-01T10:56:17.412Z,75.60
2017-11-01T10:58:45.805Z,75.50
2017-11-01T11:01:14.953Z,76.10
2017-11-01T11:03:43.349Z,75.40
2017-11-01T11:06:11.703Z,75.50
2017-11-01T11:08:40.063Z,75.60
2017-11-01T11:11:09.232Z,75.60
2017-11-01T11:13:37.628Z,75.60
2017-11-01T11:16:06.016Z,75.40
2017-11-01T11:18:34.394Z,75.10
2017-11-01T11:21:02.792Z,75.10
2017-11-01T11:23:31.962Z,75.20
2017-11-01T11:28:35.688Z,74.80
2017-11-01T11:31:04.085Z,74.70
2017-11-01T11:33:32.505Z,74.40
2017-11-01T11:36:00.942Z,74.30
2017-11-01T11:38:29.372Z,74.40
2017-11-01T11:40:57.807Z,75.40
2017-11-01T11:43:26.173Z,74.50
2017-11-01T11:45:54.600Z,74.60
2017-11-01T11:48:22.981Z,74.90
2017-11-01T11:50:51.349Z,75.00
2017-11-01T11:53:19.736Z,75.20
2017-11-01T11:55:48.144Z,75.30
2017-11-01T11:58:16.563Z,75.00
2017-11-01T12:00:44.948Z,75.20
2017-11-01T12:03:13.338Z,75.00
2017-11-01T12:05:41.742Z,74.30
2017-11-01T12:08:10.901Z,72.80
2017-11-01T12:10:39.294Z,72.80
2017-11-01T12:13:07.669Z,72.20
2017-11-01T12:15:36.054Z,72.70
2017-11-01T12:18:04.442Z,73.00
2017-11-01T12:20:32.871Z,73.30
2017-11-01T12:23:01.229Z,73.40
2017-11-01T12:25:29.661Z,73.60
2017-11-01T12:27:58.035Z,73.40
2017-11-01T12:30:27.185Z,73.10
2017-11-01T12:32:55.585Z,73.10
2017-11-01T12:35:24.731Z,72.70
2017-11-01T12:37:53.117Z,72.70
2017-11-01T12:40:22.240Z,72.40
2017-11-01T12:42:50.625Z,72.40
2017-11-01T12:45:19.034Z,72.00
2017-11-01T12:47:47.417Z,72.20
2017-11-01T12:50:15.795Z,72.30
2017-11-01T12:52:44.207Z,72.60
2017-11-01T12:55:12.569Z,72.70
2017-11-01T12:57:40.967Z,72.90
2017-11-01T13:00:09.383Z,73.10
2017-11-01T13:02:37.763Z,73.30
2017-11-01T13:05:06.907Z,73.40
2017-11-01T13:07:35.299Z,73.40
2017-11-01T13:10:03.755Z,73.30
2017-11-01T13:12:32.147Z,73.30
2017-11-01T13:15:00.522Z,73.30
2017-11-01T13:17:28.925Z,73.10
2017-11-01T13:19:57.324Z,73.10
2017-11-01T13:22:25.719Z,73.30
2017-11-01T13:24:54.971Z,73.20
2017-11-01T13:27:23.355Z,72.80
2017-11-01T13:29:51.834Z,73.30
2017-11-01T13:32:20.253Z,73.00
2017-11-01T13:34:48.648Z,73.10
2017-11-01T13:37:17.046Z,73.10
2017-11-01T13:39:46.233Z,73.00
2017-11-01T13:42:15.383Z,73.00
2017-11-01T13:44:43.779Z,72.90
2017-11-01T13:47:12.173Z,72.80
2017-11-01T13:49:40.569Z,72.70
2017-11-01T13:52:08.947Z,72.60
2017-11-01T13:54:37.356Z,72.50
2017-11-01T13:57:05.825Z,72.60
2017-11-01T13:59:34.202Z,72.50
2017-11-01T14:02:02.581Z,72.50
2017-11-01T14:04:30.963Z,72.40
2017-11-01T14:06:59.362Z,72.50
2017-11-01T14:09:27.730Z,72.40
2017-11-01T14:11:56.148Z,72.40
2017-11-01T14:14:24.545Z,72.60
2017-11-01T14:16:53.695Z,72.80
2017-11-01T14:19:22.387Z,72.80
2017-11-01T14:21:51.058Z,72.90
2017-11-01T14:24:19.737Z,72.80
2017-11-01T14:26:48.432Z,72.90
2017-11-01T14:29:17.178Z,72.90
2017-11-01T14:31:45.635Z,72.80
2017-11-01T14:34:14.003Z,72.80
2017-11-01T14:36:42.385Z,72.60
2017-11-01T14:39:10.755Z,72.70
2017-11-01T14:41:39.110Z,72.60
2017-11-01T14:44:07.498Z,72.60
2017-11-01T14:46:35.888Z,72.70
2017-11-01T14:49:04.255Z,72.90
2017-11-01T14:51:32.635Z,73.00
2017-11-01T14:54:01.773Z,73.30
2017-11-01T14:56:30.170Z,73.40
2017-11-01T14:58:58.546Z,73.50
2017-11-01T15:01:26.930Z,73.60
2017-11-01T15:03:55.312Z,73.80
2017-11-01T15:06:23.698Z,73.70
2017-11-01T15:08:52.064Z,73.80
2017-11-01T15:11:20.833Z,73.70
2017-11-01T15:13:49.228Z,73.60
2017-11-01T15:16:17.706Z,73.50
2017-11-01T15:18:46.083Z,73.40
2017-11-01T15:21:14.474Z,73.30
2017-11-01T15:23:42.841Z,73.20
2017-11-01T15:26:11.982Z,73.10
2017-11-01T15:28:40.366Z,73.00
2017-11-01T15:31:08.763Z,72.90
2017-11-01T15:33:37.165Z,73.00
2017-11-01T15:36:05.540Z,72.90
2017-11-01T15:38:33.934Z,72.60
2017-11-01T15:41:02.317Z,72.20
2017-11-01T15:43:30.686Z,72.10
2017-11-01T15:45:59.074Z,71.90
2017-11-01T15:48:27.491Z,71.60
2017-11-01T15:50:55.864Z,71.40
2017-11-01T15:53:25.043Z,70.90
2017-11-01T15:55:54.216Z,71.40
2017-11-01T15:58:22.586Z,70.70
2017-11-01T16:00:50.980Z,70.30
2017-11-01T16:03:19.360Z,69.70
2017-11-01T16:05:47.874Z,69.30
2017-11-01T16:08:16.244Z,68.70
2017-11-01T16:10:44.617Z,68.00
2017-11-01T16:13:13.015Z,67.50
2017-11-01T16:15:41.458Z,67.20
2017-11-01T16:18:09.833Z,66.70
2017-11-01T16:20:38.340Z,66.40
2017-11-01T16:23:06.706Z,66.40
2017-11-01T16:25:35.104Z,66.30
2017-11-01T16:28:03.563Z,66.30
2017-11-01T16:30:32.001Z,66.00
2017-11-01T16:33:00.461Z,66.00
2017-11-01T16:35:28.839Z,66.00
2017-11-01T16:37:57.237Z,65.90
2017-11-01T16:40:25.611Z,65.90
2017-11-01T16:42:53.982Z,65.70
2017-11-01T16:45:22.367Z,65.70
2017-11-01T16:47:50.734Z,65.30
2017-11-01T16:50:19.144Z,65.20
2017-11-01T16:52:48.141Z,64.80
2017-11-01T16:55:17.357Z,64.30
2017-11-01T16:57:45.794Z,63.20
2017-11-01T17:00:14.195Z,62.90
2017-11-01T17:02:42.593Z,62.70
2017-11-01T17:05:11.660Z,62.60
2017-11-01T17:07:40.077Z,62.70
2017-11-01T17:10:08.451Z,62.50
2017-11-01T17:12:36.813Z,62.60
2017-11-01T17:15:05.207Z,62.80
2017-11-01T17:17:33.593Z,62.40
2017-11-01T17:20:01.989Z,62.40
2017-11-01T17:22:30.378Z,62.50
2017-11-01T17:24:58.762Z,62.30
2017-11-01T17:27:27.143Z,62.40
2017-11-01T17:29:55.547Z,62.40
2017-11-01T17:32:23.943Z,62.40
2017-11-01T17:34:53.092Z,62.50
2017-11-01T17:37:21.514Z,62.50
2017-11-01T17:39:50.064Z,63.00
2017-11-01T17:42:18.896Z,63.10
2017-11-01T17:44:48.125Z,63.30
2017-11-01T17:47:16.591Z,63.70
2017-11-01T17:49:45.740Z,63.80
2017-11-01T17:52:14.110Z,63.80
2017-11-01T17:54:42.516Z,63.80
2017-11-01T17:57:10.916Z,63.80
2017-11-01T17:59:39.276Z,63.70
2017-11-01T18:02:07.651Z,63.80
2017-11-01T18:04:36.467Z,63.90
2017-11-01T18:07:04.872Z,64.30
2017-11-01T18:09:33.261Z,64.30
2017-11-01T18:12:01.641Z,64.30
2017-11-01T18:14:30.058Z,64.00
2017-11-01T18:16:58.449Z,63.80
2017-11-01T18:19:27.212Z,63.60
2017-11-01T18:21:56.364Z,63.30
2017-11-01T18:24:24.732Z,63.30
2017-11-01T18:26:53.300Z,63.40
2017-11-01T18:29:21.675Z,63.40
2017-11-01T18:31:51.308Z,63.80
2017-11-01T18:34:19.683Z,63.80
2017-11-01T18:36:48.052Z,63.60
2017-11-01T18:39:17.208Z,63.70
2017-11-01T18:41:45.586Z,63.60
2017-11-01T18:44:14.094Z,63.60
2017-11-01T18:46:42.457Z,63.80
2017-11-01T18:49:10.839Z,63.60
2017-11-01T18:51:39.276Z,63.50
2017-11-01T18:54:07.899Z,63.30
2017-11-01T18:56:36.439Z,63.10
2017-11-01T18:59:05.599Z,62.90
2017-11-01T19:01:33.981Z,62.80
2017-11-01T19:04:02.393Z,62.70
2017-11-01T19:06:31.553Z,62.70
2017-11-01T19:08:59.974Z,62.60
2017-11-01T19:11:29.147Z,63.10
2017-11-01T19:13:59.261Z,63.10
2017-11-01T19:16:27.656Z,62.90
2017-11-01T19:18:56.045Z,62.90
2017-11-01T19:21:24.425Z,63.00
2017-11-01T19:23:52.841Z,62.90
2017-11-01T19:26:21.235Z,62.70
2017-11-01T19:28:50.158Z,63.00
2017-11-01T19:31:18.517Z,62.80
2017-11-01T19:33:46.917Z,62.80
2017-11-01T19:36:15.314Z,62.80
2017-11-01T19:38:43.756Z,62.70
2017-11-01T19:41:12.919Z,62.80
2017-11-01T19:43:41.343Z,62.80
2017-11-01T19:46:09.762Z,62.80
2017-11-01T19:48:38.141Z,63.00
2017-11-01T19:51:06.505Z,63.10
2017-11-01T19:53:34.887Z,63.20
2017-11-01T19:56:03.256Z,63.10
2017-11-01T19:58:31.639Z,63.30
2017-11-01T20:01:00.848Z,63.20
2017-11-01T20:03:29.222Z,63.20
2017-11-01T20:05:58.355Z,63.30
2017-11-01T20:08:26.734Z,63.30
2017-11-01T20:10:55.125Z,63.50
2017-11-01T20:13:23.495Z,63.40
2017-11-01T20:15:51.876Z,63.20
2017-11-01T20:18:20.259Z,63.10
2017-11-01T20:20:48.641Z,63.30
2017-11-01T20:23:17.027Z,63.40
2017-11-01T20:25:45.391Z,63.30
2017-11-01T20:28:13.807Z,63.40
2017-11-01T20:30:42.182Z,63.20
2017-11-01T20:33:10.567Z,63.30
2017-11-01T20:35:38.983Z,63.40
2017-11-01T20:38:08.159Z,63.70
2017-11-01T20:40:36.556Z,63.40
2017-11-01T20:43:04.952Z,63.60
2017-11-01T20:45:33.334Z,64.10
2017-11-01T20:48:01.755Z,63.90
2017-11-01T20:50:30.816Z,64.30
2017-11-01T20:52:59.233Z,63.50
2017-11-01T20:55:27.621Z,63.20
2017-11-01T20:57:57.588Z,63.10
2017-11-01T21:00:25.999Z,63.00
2017-11-01T21:02:55.123Z,63.00
2017-11-01T21:05:23.527Z,62.80
2017-11-01T21:07:51.936Z,63.20
2017-11-01T21:10:20.307Z,63.10
2017-11-01T21:12:48.678Z,63.20
2017-11-01T21:15:17.054Z,63.50
2017-11-01T21:17:46.257Z,63.50
2017-11-01T21:20:14.678Z,63.20
2017-11-01T21:22:43.048Z,63.20
2017-11-01T21:25:11.461Z,63.10
2017-11-01T21:27:40.683Z,63.10
2017-11-01T21:30:09.105Z,63.10
2017-11-01T21:32:37.571Z,63.10
2017-11-01T21:35:05.997Z,63.10
2017-11-01T21:37:34.355Z,62.90
2017-11-01T21:40:02.727Z,62.90
2017-11-01T21:42:31.115Z,62.70
2017-11-01T21:44:59.593Z,62.50
2017-11-01T21:47:28.066Z,62.50
2017-11-01T21:49:57.268Z,62.70
2017-11-01T21:52:26.939Z,62.40
2017-11-01T21:54:55.371Z,62.40
2017-11-01T21:57:23.749Z,63.00
2017-11-01T21:59:52.292Z,62.20
2017-11-01T22:02:20.885Z,61.90
2017-11-01T22:04:50.040Z,61.70
2017-11-01T22:07:18.430Z,61.70
2017-11-01T22:09:46.882Z,61.70
2017-11-01T22:12:15.274Z,61.70
2017-11-01T22:14:43.853Z,61.90
2017-11-01T22:17:12.315Z,61.60
2017-11-01T22:19:40.809Z,61.50
2017-11-01T22:22:09.337Z,61.50
2017-11-01T22:24:37.731Z,61.80
2017-11-01T22:27:06.128Z,61.80
2017-11-01T22:29:34.715Z,61.80
2017-11-01T22:32:03.135Z,61.80
2017-11-01T22:34:32.400Z,61.90
2017-11-01T22:37:00.838Z,61.90
2017-11-01T22:39:29.234Z,62.00
2017-11-01T22:41:57.980Z,62.00
2017-11-01T22:44:26.405Z,61.90
2017-11-01T22:46:54.910Z,61.90
2017-11-01T22:49:23.320Z,61.80
2017-11-01T22:51:52.502Z,61.60
2017-11-01T22:54:20.872Z,61.60
2017-11-01T22:56:49.267Z,61.50
2017-11-01T22:59:17.784Z,62.80
2017-11-01T23:01:46.920Z,61.80
2017-11-01T23:04:15.328Z,61.80
2017-11-01T23:06:43.696Z,61.70
2017-11-01T23:09:12.103Z,61.70
2017-11-01T23:11:40.497Z,61.70
2017-11-01T23:14:09.660Z,61.60
2017-11-01T23:16:38.082Z,61.60
2017-11-01T23:19:06.483Z,61.50
2017-11-01T23:21:35.692Z,61.90
2017-11-01T23:24:04.075Z,61.90
2017-11-01T23:26:32.458Z,61.70
2017-11-01T23:29:01.622Z,61.70
2017-11-01T23:31:30.003Z,61.70
2017-11-01T23:33:58.395Z,62.20
2017-11-01T23:36:27.548Z,61.90
2017-11-01T23:38:55.927Z,62.20
2017-11-01T23:41:24.314Z,63.30
2017-11-01T23:43:52.751Z,62.70
2017-11-01T23:46:21.170Z,62.70
2017-11-01T23:48:49.562Z,62.90
2017-11-01T23:51:17.973Z,63.00
2017-11-01T23:53:46.429Z,63.10
2017-11-01T23:56:14.813Z,63.20
2017-11-01T23:58:43.268Z,63.30
